Time;durP1;ratioP1;P1;durP2;ratioP2;P2;SDS_P1;SDS_P2;PMS_P1;PMS_P2;Temp;Humidity;BMP_temperature;BMP_pressure;BME280_temperature;BME280_humidity;BME280_pressure;Samples;Min_cycle;Max_cycle;Signal;HPM_P1;HPM_P2
2021/10/07 00:01:29;;;;;;;2.30;1.60;;;10.70;99.90;;;;;;5005144;28;20199;-81
2021/10/07 00:03:55;;;;;;;4.07;1.63;;;10.70;99.90;;;;;;5004400;28;20240;-83
2021/10/07 00:06:21;;;;;;;2.17;1.60;;;10.70;99.90;;;;;;5023170;28;20203;-82
2021/10/07 00:08:47;;;;;;;3.87;1.73;;;10.60;99.90;;;;;;5005584;28;20183;-81
2021/10/07 00:11:14;;;;;;;1.67;1.50;;;10.60;99.90;;;;;;5022371;28;20225;-81
2021/10/07 00:13:40;;;;;;;2.03;1.80;;;10.60;99.90;;;;;;5019944;28;20179;-81
2021/10/07 00:16:07;;;;;;;2.23;2.00;;;10.50;99.90;;;;;;5022469;28;20549;-81
2021/10/07 00:18:37;;;;;;;5.03;2.23;;;10.60;99.90;;;;;;4993448;28;20238;-82
2021/10/07 00:21:04;;;;;;;2.47;1.83;;;10.70;99.90;;;;;;5022576;28;20763;-81
2021/10/07 00:23:33;;;;;;;1.70;1.60;;;10.80;99.90;;;;;;5022126;28;20213;-81
2021/10/07 00:25:58;;;;;;;4.83;2.20;;;10.50;99.90;;;;;;5022626;28;20197;-82
2021/10/07 00:28:25;;;;;;;2.93;2.30;;;10.50;99.90;;;;;;5022303;28;20304;-81
2021/10/07 00:30:55;;;;;;;3.60;2.10;;;10.50;99.90;;;;;;5024706;28;20219;-82
2021/10/07 00:33:26;;;;;;;3.17;2.40;;;10.50;99.90;;;;;;5022243;28;20182;-81
2021/10/07 00:36:25;;;;;;;3.57;2.30;;;10.50;99.90;;;;;;5004208;28;20236;-82
2021/10/07 00:39:03;;;;;;;2.30;2.10;;;10.60;99.90;;;;;;5022897;28;20181;-82
2021/10/07 00:41:33;;;;;;;2.67;2.43;;;10.60;99.90;;;;;;5032331;28;20202;-82
2021/10/07 00:44:03;;;;;;;2.03;1.70;;;10.50;99.90;;;;;;5022517;28;20190;-82
2021/10/07 00:46:29;;;;;;;1.93;1.80;;;10.60;99.90;;;;;;5022722;28;20199;-82
2021/10/07 00:48:55;;;;;;;4.23;1.80;;;10.60;99.90;;;;;;5022597;28;20183;-81
2021/10/07 00:51:21;;;;;;;2.73;2.00;;;10.60;99.90;;;;;;5021637;28;20230;-81
2021/10/07 00:53:47;;;;;;;3.43;1.80;;;10.50;99.90;;;;;;5022125;28;20211;-81
2021/10/07 00:56:12;;;;;;;3.20;2.20;;;10.60;99.90;;;;;;5021731;28;20676;-81
2021/10/07 00:58:39;;;;;;;2.33;2.10;;;10.60;99.90;;;;;;5022007;28;20177;-81
2021/10/07 01:01:05;;;;;;;1.90;1.80;;;10.60;99.90;;;;;;5021541;28;20231;-82
2021/10/07 01:03:33;;;;;;;3.50;2.10;;;10.60;99.90;;;;;;5021749;28;20643;-81
2021/10/07 01:05:59;;;;;;;3.53;2.17;;;10.70;99.90;;;;;;5021384;28;20221;-81
2021/10/07 01:08:25;;;;;;;3.93;2.13;;;10.60;99.90;;;;;;5020614;28;20204;-82
2021/10/07 01:10:51;;;;;;;2.60;2.10;;;10.60;99.90;;;;;;5021125;28;20266;-81
2021/10/07 01:13:16;;;;;;;2.07;1.97;;;10.60;99.90;;;;;;5022143;28;20654;-82
2021/10/07 01:15:42;;;;;;;3.47;2.07;;;10.60;99.90;;;;;;5021407;28;20189;-82
2021/10/07 01:18:08;;;;;;;3.63;2.70;;;10.80;99.90;;;;;;5021258;28;20193;-82
2021/10/07 01:20:36;;;;;;;7.13;3.93;;;10.60;99.90;;;;;;5021180;28;20208;-81
2021/10/07 01:23:02;;;;;;;7.50;4.30;;;10.80;99.90;;;;;;5002403;28;20542;-82
2021/10/07 01:25:33;;;;;;;5.07;3.57;;;10.70;99.90;;;;;;5019285;28;20203;-81
2021/10/07 01:27:59;;;;;;;5.17;4.33;;;10.70;99.90;;;;;;5020417;28;20205;-81
2021/10/07 01:30:26;;;;;;;5.37;4.00;;;10.70;99.90;;;;;;5020521;28;20189;-81
2021/10/07 01:32:56;;;;;;;4.93;3.70;;;10.60;99.90;;;;;;5006036;28;20217;-81
2021/10/07 01:35:22;;;;;;;4.30;3.47;;;10.50;99.90;;;;;;5014001;28;20194;-81
2021/10/07 01:37:48;;;;;;;5.03;3.90;;;10.50;99.90;;;;;;5023622;28;20180;-82
2021/10/07 01:40:14;;;;;;;3.77;3.37;;;10.50;99.90;;;;;;5041935;23;20287;-83
2021/10/07 01:42:42;;;;;;;3.90;3.50;;;10.60;99.90;;;;;;5011426;28;20204;-84
2021/10/07 01:45:09;;;;;;;4.33;3.77;;;10.40;99.90;;;;;;5027527;28;20167;-84
2021/10/07 01:47:35;;;;;;;3.83;3.00;;;10.40;99.90;;;;;;5027805;28;20168;-84
2021/10/07 01:50:02;;;;;;;2.40;2.20;;;10.40;99.90;;;;;;5008676;28;20268;-84
2021/10/07 01:52:28;;;;;;;2.97;2.43;;;10.40;99.90;;;;;;5025934;28;20220;-83
2021/10/07 01:54:53;;;;;;;2.80;2.60;;;10.40;99.90;;;;;;5022617;28;20560;-84
2021/10/07 01:57:19;;;;;;;2.57;2.23;;;10.50;99.90;;;;;;5025710;28;20212;-83
2021/10/07 01:59:45;;;;;;;2.67;2.37;;;10.40;99.90;;;;;;5008252;28;20268;-84
2021/10/07 02:02:10;;;;;;;2.33;2.13;;;10.50;99.90;;;;;;5024783;28;20240;-82
2021/10/07 02:04:36;;;;;;;4.03;2.40;;;10.40;99.90;;;;;;5008381;28;20188;-82
2021/10/07 02:07:02;;;;;;;2.73;2.50;;;10.50;99.90;;;;;;5006390;28;20201;-82
2021/10/07 02:09:27;;;;;;;4.17;2.50;;;10.40;99.90;;;;;;5005968;28;20226;-84
2021/10/07 02:11:53;;;;;;;2.57;2.37;;;10.30;99.90;;;;;;5027007;28;20212;-84
2021/10/07 02:14:19;;;;;;;4.20;2.70;;;10.40;99.90;;;;;;5007223;28;20197;-83
2021/10/07 02:16:45;;;;;;;3.30;2.87;;;10.30;99.90;;;;;;5025633;28;20188;-84
2021/10/07 02:19:10;;;;;;;3.97;3.20;;;10.40;99.90;;;;;;5007434;28;20253;-84
2021/10/07 02:21:36;;;;;;;4.63;2.80;;;10.40;99.90;;;;;;5026352;28;20175;-84
2021/10/07 02:24:02;;;;;;;3.70;3.00;;;10.40;99.90;;;;;;5025572;28;20192;-83
2021/10/07 02:26:28;;;;;;;7.53;4.77;;;10.30;99.90;;;;;;5026212;28;20203;-84
2021/10/07 02:28:53;;;;;;;7.30;4.27;;;10.40;99.90;;;;;;5021611;28;20285;-83
2021/10/07 02:31:19;;;;;;;5.93;4.53;;;10.60;99.90;;;;;;5010560;28;20185;-84
2021/10/07 02:33:45;;;;;;;7.73;4.40;;;10.40;99.90;;;;;;5016815;28;20189;-84
2021/10/07 02:36:10;;;;;;;4.63;4.20;;;10.50;99.90;;;;;;5013187;28;20192;-84
2021/10/07 02:38:36;;;;;;;10.17;5.57;;;10.40;99.90;;;;;;5024284;28;20172;-84
2021/10/07 02:41:02;;;;;;;8.33;6.30;;;10.40;99.90;;;;;;5002570;28;20764;-81
2021/10/07 02:43:27;;;;;;;5.17;4.63;;;10.40;99.90;;;;;;5006427;28;20184;-84
2021/10/07 02:45:53;;;;;;;4.60;4.20;;;10.40;99.90;;;;;;5027216;28;20203;-83
2021/10/07 02:48:19;;;;;;;4.70;4.30;;;10.40;99.90;;;;;;5008758;28;20192;-84
2021/10/07 02:50:44;;;;;;;4.30;3.90;;;10.70;99.90;;;;;;5027507;28;20200;-84
2021/10/07 02:53:10;;;;;;;3.73;3.43;;;10.50;99.90;;;;;;5026217;28;20180;-84
2021/10/07 02:55:36;;;;;;;4.40;3.63;;;10.30;99.90;;;;;;5029000;28;20190;-84
2021/10/07 02:58:02;;;;;;;4.13;3.70;;;;;;;;;;5028802;28;20548;-84
2021/10/07 03:00:28;;;;;;;4.50;3.70;;;;;;;;;;5011182;28;20208;-84
2021/10/07 03:02:54;;;;;;;5.50;4.57;;;10.40;99.90;;;;;;5009952;28;20195;-84
2021/10/07 03:05:19;;;;;;;7.77;5.23;;;10.30;99.90;;;;;;5029900;28;20195;-84
2021/10/07 03:07:45;;;;;;;7.13;5.23;;;10.30;99.90;;;;;;5032242;28;20183;-84
2021/10/07 03:10:11;;;;;;;4.17;3.70;;;10.40;99.90;;;;;;5032745;28;20274;-84
2021/10/07 03:12:37;;;;;;;4.77;3.60;;;10.40;99.90;;;;;;5032357;28;20184;-84
2021/10/07 03:15:05;;;;;;;4.30;3.70;;;10.40;99.90;;;;;;5032148;28;20181;-84
2021/10/07 03:17:30;;;;;;;4.93;3.67;;;10.30;99.90;;;;;;5031922;28;20183;-84
2021/10/07 03:19:56;;;;;;;4.00;3.53;;;10.40;99.90;;;;;;5031267;28;20266;-85
2021/10/07 03:22:22;;;;;;;5.30;3.77;;;10.40;99.90;;;;;;5014519;28;20267;-84
2021/10/07 03:24:48;;;;;;;4.77;4.00;;;10.30;99.90;;;;;;5031444;28;20242;-84
2021/10/07 03:27:13;;;;;;;5.23;3.70;;;10.40;99.90;;;;;;5031028;28;20194;-84
2021/10/07 03:29:39;;;;;;;6.00;4.00;;;10.40;99.90;;;;;;5031725;28;20207;-83
2021/10/07 03:32:05;;;;;;;4.70;3.83;;;10.40;99.90;;;;;;5031458;28;20192;-84
2021/10/07 03:34:30;;;;;;;3.93;3.23;;;10.30;99.90;;;;;;5014762;28;20226;-85
2021/10/07 03:36:56;;;;;;;6.50;3.67;;;10.30;99.90;;;;;;5031030;28;20183;-85
2021/10/07 03:39:22;;;;;;;3.47;3.17;;;10.30;99.90;;;;;;5014004;28;20215;-85
2021/10/07 03:41:47;;;;;;;4.07;3.50;;;10.30;99.90;;;;;;5031185;28;20180;-84
2021/10/07 03:44:13;;;;;;;3.63;2.80;;;10.40;99.90;;;;;;5013794;28;20192;-84
2021/10/07 03:46:39;;;;;;;2.47;2.27;;;10.50;99.90;;;;;;5030480;28;20199;-84
2021/10/07 03:49:05;;;;;;;4.47;2.37;;;10.30;99.90;;;;;;5013471;28;20259;-84
2021/10/07 03:51:30;;;;;;;2.70;2.50;;;10.30;99.90;;;;;;5012503;28;20226;-84
2021/10/07 03:53:56;;;;;;;2.90;2.60;;;10.50;99.90;;;;;;5030424;28;20635;-85
2021/10/07 03:56:22;;;;;;;2.70;2.47;;;10.30;99.90;;;;;;5012454;28;20189;-84
2021/10/07 03:58:47;;;;;;;2.50;2.30;;;10.40;99.90;;;;;;5013335;28;20202;-84
2021/10/07 04:01:13;;;;;;;3.70;2.77;;;10.50;99.90;;;;;;5025836;28;20238;-84
2021/10/07 04:03:38;;;;;;;3.57;2.50;;;10.30;99.90;;;;;;5018835;28;20181;-84
2021/10/07 04:06:04;;;;;;;5.07;2.60;;;10.50;99.90;;;;;;5019816;28;20207;-84
2021/10/07 04:08:30;;;;;;;3.20;2.60;;;10.30;99.90;;;;;;5011865;28;20206;-84
2021/10/07 04:10:55;;;;;;;3.00;2.80;;;10.40;99.90;;;;;;5009920;28;20177;-84
2021/10/07 04:13:22;;;;;;;4.33;2.90;;;10.30;99.90;;;;;;5030544;28;20267;-84
2021/10/07 04:15:49;;;;;;;3.00;2.80;;;10.30;99.90;;;;;;5029515;28;20194;-84
2021/10/07 04:18:16;;;;;;;3.20;2.90;;;10.40;99.90;;;;;;5008090;28;20193;-84
2021/10/07 04:20:42;;;;;;;4.90;3.00;;;10.40;99.90;;;;;;5011756;28;20200;-84
2021/10/07 04:23:08;;;;;;;3.57;3.27;;;10.40;99.90;;;;;;5029738;28;20245;-84
2021/10/07 04:25:34;;;;;;;3.90;3.60;;;10.60;99.90;;;;;;5029645;28;20220;-84
2021/10/07 04:27:59;;;;;;;4.43;4.00;;;10.50;99.90;;;;;;5012614;28;20185;-84
2021/10/07 04:30:25;;;;;;;4.63;4.27;;;10.70;99.90;;;;;;5029411;28;20248;-84
2021/10/07 04:32:51;;;;;;;4.57;4.10;;;10.30;99.90;;;;;;5012165;28;20208;-84
2021/10/07 04:35:17;;;;;;;4.50;4.17;;;10.40;99.90;;;;;;5028943;28;20176;-84
2021/10/07 04:37:43;;;;;;;4.53;4.13;;;10.60;99.90;;;;;;5013375;28;20172;-80
2021/10/07 04:40:10;;;;;;;6.90;4.47;;;10.40;99.90;;;;;;5010305;28;20302;-84
2021/10/07 04:42:36;;;;;;;5.03;4.30;;;10.40;99.90;;;;;;5015864;28;20246;-80
2021/10/07 04:45:03;;;;;;;5.23;4.80;;;10.40;99.90;;;;;;4990083;28;20211;-84
2021/10/07 04:47:29;;;;;;;4.57;4.27;;;10.40;99.90;;;;;;5006581;28;20272;-84
2021/10/07 04:49:55;;;;;;;4.47;4.10;;;10.30;99.90;;;;;;5028617;28;20199;-84
2021/10/07 04:52:21;;;;;;;4.90;4.50;;;10.50;99.90;;;;;;5011071;28;20196;-83
2021/10/07 04:54:47;;;;;;;4.83;4.17;;;10.60;99.90;;;;;;5011913;28;20174;-84
2021/10/07 04:57:12;;;;;;;4.67;4.23;;;10.30;99.90;;;;;;5028648;28;20179;-84
2021/10/07 04:59:38;;;;;;;4.80;4.40;;;10.30;99.90;;;;;;5011670;28;20322;-83
2021/10/07 05:02:04;;;;;;;4.17;3.77;;;10.30;99.90;;;;;;5011483;28;20248;-84
2021/10/07 05:04:29;;;;;;;3.77;3.37;;;10.20;99.90;;;;;;5028316;28;20216;-83
2021/10/07 05:06:55;;;;;;;4.23;3.83;;;10.10;99.90;;;;;;5009797;28;20230;-84
2021/10/07 05:09:21;;;;;;;3.97;3.60;;;10.20;99.90;;;;;;5027162;28;20742;-83
2021/10/07 05:11:46;;;;;;;3.60;3.30;;;10.10;99.90;;;;;;5026442;28;20221;-84
2021/10/07 05:14:12;;;;;;;3.97;3.30;;;10.20;99.90;;;;;;5009267;28;20343;-84
2021/10/07 05:16:37;;;;;;;4.47;3.30;;;10.20;99.90;;;;;;5025763;28;20573;-83
2021/10/07 05:19:03;;;;;;;4.60;3.20;;;10.20;99.90;;;;;;5026069;28;20207;-84
2021/10/07 05:21:29;;;;;;;3.40;2.97;;;10.20;99.90;;;;;;5008707;28;20208;-83
2021/10/07 05:23:54;;;;;;;3.20;2.90;;;10.20;99.90;;;;;;5025486;28;20252;-84
2021/10/07 05:26:20;;;;;;;3.57;3.23;;;10.30;99.90;;;;;;5028909;28;20274;-83
2021/10/07 05:28:46;;;;;;;3.10;2.90;;;10.60;99.90;;;;;;5026236;28;20286;-84
2021/10/07 05:31:11;;;;;;;3.77;2.93;;;10.30;99.90;;;;;;5019017;28;20188;-84
2021/10/07 05:33:37;;;;;;;3.10;2.90;;;10.30;99.90;;;;;;5007520;28;20174;-84
2021/10/07 05:36:03;;;;;;;3.03;2.80;;;10.20;99.90;;;;;;5022055;28;20238;-84
2021/10/07 05:38:29;;;;;;;8.93;3.40;;;10.30;99.90;;;;;;5027234;28;20257;-83
2021/10/07 05:40:55;;;;;;;5.17;3.17;;;10.30;99.90;;;;;;5027642;28;20532;-79
2021/10/07 05:43:21;;;;;;;3.77;3.47;;;10.30;99.90;;;;;;5028439;28;20185;-84
2021/10/07 05:45:47;;;;;;;3.67;3.30;;;10.50;99.90;;;;;;5008743;28;20193;-84
2021/10/07 05:48:13;;;;;;;5.67;3.47;;;10.30;99.90;;;;;;5007233;28;20207;-85
2021/10/07 05:50:38;;;;;;;3.83;3.43;;;10.30;99.90;;;;;;5015489;28;20207;-85
2021/10/07 05:53:04;;;;;;;3.90;3.07;;;10.30;99.90;;;;;;4999818;28;20185;-84
2021/10/07 05:55:30;;;;;;;2.97;2.77;;;10.30;99.90;;;;;;5002069;28;20272;-85
2021/10/07 05:57:56;;;;;;;3.33;3.03;;;10.50;99.90;;;;;;5013202;28;20550;-85
2021/10/07 06:00:22;;;;;;;4.57;3.00;;;10.30;99.90;;;;;;5001488;28;20201;-86
2021/10/07 06:02:48;;;;;;;3.63;3.13;;;10.30;99.90;;;;;;5000847;28;20187;-85
2021/10/07 06:05:14;;;;;;;3.27;3.07;;;10.20;99.90;;;;;;5002198;28;20597;-84
2021/10/07 06:07:40;;;;;;;4.93;3.40;;;10.20;99.90;;;;;;5011795;28;20176;-82
2021/10/07 06:10:07;;;;;;;4.33;3.53;;;10.30;99.90;;;;;;5009851;28;20229;-85
2021/10/07 06:12:33;;;;;;;3.33;3.03;;;10.20;99.90;;;;;;5021223;28;20670;-85
2021/10/07 06:14:58;;;;;;;3.40;3.10;;;10.20;99.90;;;;;;5003196;28;20205;-84
2021/10/07 06:17:24;;;;;;;3.53;3.23;;;10.30;99.90;;;;;;4994455;28;20180;-85
2021/10/07 06:19:55;;;;;;;3.43;3.23;;;10.30;99.90;;;;;;5012109;28;20573;-83
2021/10/07 06:22:21;;;;;;;3.40;3.10;;;10.30;99.90;;;;;;5006259;28;20178;-82
2021/10/07 06:24:47;;;;;;;3.10;2.80;;;10.40;99.90;;;;;;5000279;28;20174;-80
2021/10/07 06:27:12;;;;;;;3.03;2.83;;;10.30;99.90;;;;;;4999987;28;20271;-82
2021/10/07 06:29:38;;;;;;;3.50;3.20;;;10.30;99.90;;;;;;4984022;28;20228;-83
2021/10/07 06:32:04;;;;;;;7.33;3.03;;;10.40;99.90;;;;;;5016668;28;20186;-83
2021/10/07 06:34:30;;;;;;;3.23;2.90;;;10.40;99.90;;;;;;5012236;28;20174;-82
2021/10/07 06:36:55;;;;;;;4.50;2.80;;;10.40;99.90;;;;;;5002005;28;20261;-83
2021/10/07 06:39:21;;;;;;;3.30;3.10;;;10.40;99.90;;;;;;4985586;28;20216;-83
2021/10/07 06:41:47;;;;;;;3.70;3.40;;;10.40;99.90;;;;;;4983939;28;20193;-82
2021/10/07 06:44:13;;;;;;;5.70;3.80;;;10.50;99.90;;;;;;5004555;28;20200;-82
2021/10/07 06:46:39;;;;;;;4.30;3.90;;;10.50;99.90;;;;;;5010003;28;20198;-83
2021/10/07 06:49:05;;;;;;;4.10;3.70;;;10.50;99.90;;;;;;4986955;28;20587;-83
2021/10/07 06:51:31;;;;;;;4.13;3.63;;;10.50;99.90;;;;;;4999790;28;20210;-82
2021/10/07 06:54:00;;;;;;;3.80;3.50;;;10.50;99.90;;;;;;4983199;28;20207;-83
2021/10/07 06:56:25;;;;;;;4.10;3.70;;;10.50;99.90;;;;;;5017427;28;20177;-83
2021/10/07 06:58:54;;;;;;;4.57;3.80;;;10.50;99.90;;;;;;4994588;28;20205;-83
2021/10/07 07:01:21;;;;;;;3.97;3.53;;;10.60;99.90;;;;;;4983277;28;20713;-83
2021/10/07 07:03:48;;;;;;;3.93;3.63;;;10.50;99.90;;;;;;5000114;28;20213;-83
2021/10/07 07:06:14;;;;;;;3.87;3.47;;;10.50;99.90;;;;;;4998508;28;20195;-83
2021/10/07 07:08:39;;;;;;;4.23;3.83;;;10.50;99.90;;;;;;5019974;28;20181;-85
2021/10/07 07:11:05;;;;;;;8.10;5.20;;;10.60;99.90;;;;;;5002302;28;20212;-84
2021/10/07 07:13:30;;;;;;;5.33;4.83;;;10.50;99.90;;;;;;5019683;28;20178;-85
2021/10/07 07:15:56;;;;;;;5.27;4.87;;;10.60;99.90;;;;;;5011937;28;20237;-85
2021/10/07 07:18:22;;;;;;;5.70;5.10;;;10.60;99.90;;;;;;5015973;28;20187;-84
2021/10/07 07:20:49;;;;;;;7.20;6.50;;;10.60;99.90;;;;;;5010957;28;20707;-85
2021/10/07 07:23:15;;;;;;;7.00;5.93;;;10.50;99.90;;;;;;5011153;28;20181;-84
2021/10/07 07:25:41;;;;;;;6.90;6.40;;;10.50;99.90;;;;;;5019587;28;20659;-85
2021/10/07 07:28:07;;;;;;;7.20;6.50;;;10.50;99.90;;;;;;5021083;28;20175;-85
2021/10/07 07:30:33;;;;;;;6.07;5.57;;;10.50;99.90;;;;;;5006278;28;20206;-85
2021/10/07 07:32:59;;;;;;;6.33;5.73;;;10.60;99.90;;;;;;5003104;28;20670;-83
2021/10/07 07:35:29;;;;;;;8.80;6.77;;;10.60;99.90;;;;;;4991088;28;20185;-85
2021/10/07 07:37:55;;;;;;;6.50;5.90;;;10.60;99.90;;;;;;5000665;28;20220;-83
2021/10/07 07:44:27;;;;;;;7.00;6.33;;;11.00;99.90;;;;;;5006410;28;20185;-79
2021/10/07 07:47:44;;;;;;;;;;;;;;;;;;;;;
2021/10/07 07:50:40;;;;;;;8.53;7.33;;;10.80;99.90;;;;;;4963321;28;20290;-79
2021/10/07 07:53:40;;;;;;;5.07;4.67;;;10.70;99.90;;;;;;5029996;28;20197;-80
2021/10/07 08:15:30;;;;;;;4.10;3.80;;;11.40;99.90;;;;;;5004387;28;20250;-82
2021/10/07 08:18:24;;;;;;;3.70;3.40;;;11.70;99.90;;;;;;5008396;28;20660;-79
2021/10/07 08:42:31;;;;;;;4.00;3.60;;;11.70;99.90;;;;;;4966545;28;20190;-80
2021/10/07 08:49:04;;;;;;;4.50;4.10;;;10.90;99.90;;;;;;4927453;29;20196;-79
2021/10/07 08:52:21;;;;;;;5.93;4.43;;;10.70;99.90;;;;;;4963623;28;20210;-80
2021/10/07 08:55:23;;;;;;;4.83;4.43;;;12.00;99.90;;;;;;4991794;28;20645;-80
2021/10/07 09:06:15;;;;;;;2.87;2.20;;;11.30;99.90;;;;;;4963540;28;20261;-80
2021/10/07 09:09:22;;;;;;;;;;;;;;;;;;;;;
2021/10/07 09:12:57;;;;;;;;;;;;;;;;;;;;;
2021/10/07 09:16:33;;;;;;;3.03;2.30;;;12.10;99.90;;;;;;4949885;28;20276;-80
2021/10/07 09:20:07;;;;;;;;;;;;;;;;;;;;;
2021/10/07 09:26:27;;;;;;;3.80;3.30;;;11.60;99.90;;;;;;5023283;28;20185;-79
2021/10/07 09:33:35;;;;;;;;;;;;;;;;;;;;;
2021/10/07 09:37:17;;;;;;;;;;;;;;;;;;;;;
2021/10/07 09:47:33;;;;;;;4.23;2.90;;;11.60;99.90;;;;;;4783621;30;20266;-78
2021/10/07 09:54:56;;;;;;;3.30;2.80;;;12.10;99.90;;;;;;4825399;29;20235;-78
2021/10/07 09:57:51;;;;;;;3.10;2.70;;;12.70;99.90;;;;;;4812349;29;20217;-78
2021/10/07 10:04:44;;;;;;;3.67;2.80;;;11.70;99.90;;;;;;4846680;29;20198;-78
2021/10/07 10:11:25;;;;;;;;;;;;;;;;;;;;;
2021/10/07 10:29:59;;;;;;;2.77;1.70;;;12.70;99.90;;;;;;4830216;29;20191;-80
2021/10/07 10:33:14;;;;;;;2.33;1.97;;;13.20;99.90;;;;;;4847215;29;20270;-81
2021/10/07 11:01:38;;;;;;;;;;;;;;;;;;;;;
2021/10/07 11:12:21;;;;;;;6.30;4.07;;;13.40;99.90;;;;;;4848332;29;20224;-79
2021/10/07 11:18:38;;;;;;;2.10;1.40;;;12.70;99.90;;;;;;4795004;29;20201;-79
2021/10/07 11:22:07;;;;;;;5.10;4.63;;;12.90;99.90;;;;;;4796260;29;20281;-79
2021/10/07 11:25:27;;;;;;;;;;;;;;;;;;;;;
2021/10/07 11:31:43;;;;;;;1.83;1.37;;;13.80;99.90;;;;;;4945041;29;20216;-80
2021/10/07 11:35:42;;;;;;;;;;;;;;;;;;;;;
2021/10/07 11:39:43;;;;;;;;;;;;;;;;;;;;;
2021/10/07 11:45:50;;;;;;;3.07;1.70;;;13.30;99.90;;;;;;4875052;29;20283;-79
2021/10/07 11:48:37;;;;;;;2.47;2.17;;;11.80;99.90;;;;;;4878126;29;20313;-79
2021/10/07 11:51:51;;;;;;;2.30;1.73;;;12.30;99.90;;;;;;4878110;29;20318;-79
2021/10/07 11:58:22;;;;;;;2.80;1.80;;;13.00;99.90;;;;;;4859509;29;20254;-79
2021/10/07 12:01:35;;;;;;;1.77;1.67;;;13.70;99.90;;;;;;4862846;29;20342;-79
2021/10/07 12:04:40;;;;;;;;;;;;;;;;;;;;;
2021/10/07 12:07:38;;;;;;;3.33;1.30;;;13.90;99.90;;;;;;4919802;29;20296;-80
2021/10/07 12:14:26;;;;;;;2.37;1.03;;;13.50;99.90;;;;;;4969196;29;20195;-80
2021/10/07 12:17:38;;;;;;;1.40;1.27;;;13.70;99.90;;;;;;4964843;28;20200;-80
2021/10/07 12:21:01;;;;;;;;;;;;;;;;;;;;;
2021/10/07 12:34:16;;;;;;;;;;;;;;;;;;;;;
2021/10/07 12:37:17;;;;;;;2.73;1.20;;;12.70;99.90;;;;;;4948244;28;20288;-80
2021/10/07 12:43:55;;;;;;;;;;;;;;;;;;;;;
2021/10/07 12:53:33;;;;;;;18.87;7.07;;;13.80;99.90;;;;;;5011491;28;20194;-81
2021/10/07 12:59:59;;;;;;;10.87;4.87;;;12.70;99.90;;;;;;5031788;28;20200;-80
2021/10/07 13:03:29;;;;;;;;;;;;;;;;;;;;;
2021/10/07 13:13:09;;;;;;;67.93;19.57;;;12.30;99.90;;;;;;5083589;23;20236;-80
2021/10/07 13:16:22;;;;;;;3.47;1.43;;;13.60;99.90;;;;;;5052089;28;20206;-80
2021/10/07 13:22:49;;;;;;;60.53;31.73;;;13.90;99.90;;;;;;5021292;28;20600;-80
2021/10/07 13:29:16;;;;;;;12.07;10.87;;;12.50;99.90;;;;;;5038334;28;20320;-81
2021/10/07 13:35:39;;;;;;;2.27;1.30;;;12.60;99.90;;;;;;4994890;28;20202;-80
2021/10/07 13:38:26;;;;;;;15.00;8.57;;;13.40;99.90;;;;;;4998901;28;20245;-80
2021/10/07 13:40:54;;;;;;;107.53;59.77;;;13.20;99.90;;;;;;5034558;22;20226;-85
2021/10/07 13:43:21;;;;;;;83.20;43.27;;;13.20;99.90;;;;;;5043189;28;20260;-85
2021/10/07 13:45:47;;;;;;;9.83;7.83;;;13.30;99.90;;;;;;5043582;28;20572;-85
2021/10/07 13:48:17;;;;;;;3.23;2.43;;;13.30;99.90;;;;;;5043518;28;20171;-84
2021/10/07 13:50:43;;;;;;;1.00;1.00;;;13.40;99.90;;;;;;5041862;28;20213;-83
2021/10/07 13:53:09;;;;;;;22.17;13.23;;;13.40;99.90;;;;;;5041957;28;20186;-85
2021/10/07 13:55:35;;;;;;;3.97;3.60;;;13.50;99.90;;;;;;5042872;28;20183;-85
2021/10/07 13:58:01;;;;;;;10.40;8.33;;;13.50;99.90;;;;;;5042602;28;20725;-85
2021/10/07 14:00:26;;;;;;;15.27;11.23;;;13.50;99.90;;;;;;5042703;28;20175;-85
2021/10/07 14:02:52;;;;;;;39.63;22.03;;;13.40;99.90;;;;;;5024550;28;20212;-84
2021/10/07 14:05:23;;;;;;;1.73;1.63;;;13.40;99.90;;;;;;5019761;28;20174;-84
2021/10/07 14:07:50;;;;;;;9.00;7.60;;;13.40;99.90;;;;;;5019960;28;20218;-84
2021/10/07 14:10:16;;;;;;;9.33;7.07;;;13.40;99.90;;;;;;5021530;28;20729;-84
2021/10/07 14:12:43;;;;;;;1.53;1.43;;;13.40;99.90;;;;;;5008451;28;20215;-84
2021/10/07 14:15:09;;;;;;;3.03;1.93;;;13.30;99.90;;;;;;5024046;28;20175;-85
2021/10/07 14:17:35;;;;;;;2.33;1.60;;;13.30;99.90;;;;;;5012093;28;20193;-84
2021/10/07 14:20:02;;;;;;;1.27;0.83;;;13.30;99.90;;;;;;5023803;28;20182;-86
2021/10/07 14:22:28;;;;;;;1.33;1.10;;;13.30;99.90;;;;;;5022665;28;20206;-86
2021/10/07 14:24:54;;;;;;;1.43;1.23;;;13.30;99.90;;;;;;5017355;28;20190;-85
2021/10/07 14:27:19;;;;;;;1.10;1.00;;;13.20;99.90;;;;;;5039601;28;20279;-85
2021/10/07 14:29:47;;;;;;;1.73;1.13;;;13.20;99.90;;;;;;5027324;28;20200;-85
2021/10/07 14:32:13;;;;;;;1.63;1.53;;;13.10;99.90;;;;;;5030559;28;20225;-85
2021/10/07 14:34:40;;;;;;;1.53;1.33;;;13.10;99.90;;;;;;5028101;28;20173;-84
2021/10/07 14:37:06;;;;;;;3.60;3.37;;;13.10;99.90;;;;;;5027083;28;20186;-85
2021/10/07 14:39:31;;;;;;;4.50;4.10;;;13.00;99.90;;;;;;5028245;28;20182;-84
2021/10/07 14:41:57;;;;;;;2.63;1.30;;;13.10;99.90;;;;;;5033806;28;20224;-86
2021/10/07 14:44:22;;;;;;;1.23;1.13;;;13.10;99.90;;;;;;5042380;28;20187;-86
2021/10/07 14:46:48;;;;;;;2.13;1.40;;;13.00;99.90;;;;;;5032309;28;20203;-86
2021/10/07 14:49:14;;;;;;;2.30;1.13;;;13.10;99.90;;;;;;5035759;28;20194;-84
2021/10/07 14:51:39;;;;;;;1.77;1.50;;;13.20;99.90;;;;;;5025472;28;20410;-86
2021/10/07 14:54:05;;;;;;;1.80;1.17;;;13.20;99.90;;;;;;5021498;28;20176;-86
2021/10/07 14:56:31;;;;;;;2.43;2.10;;;13.30;99.90;;;;;;5021394;28;20173;-86
2021/10/07 14:58:56;;;;;;;1.67;1.57;;;13.30;99.90;;;;;;5023970;28;20688;-86
2021/10/07 15:01:22;;;;;;;1.90;1.77;;;13.30;99.90;;;;;;5025759;28;20625;-85
2021/10/07 15:03:47;;;;;;;7.20;6.70;;;13.30;99.90;;;;;;5028493;28;20266;-85
2021/10/07 15:06:13;;;;;;;2.17;1.70;;;13.30;99.90;;;;;;5042077;28;20229;-86
2021/10/07 15:08:39;;;;;;;1.93;1.80;;;13.20;99.90;;;;;;5036289;28;20267;-86
2021/10/07 15:11:05;;;;;;;1.63;1.20;;;13.20;99.90;;;;;;5038355;28;20198;-86
2021/10/07 15:13:30;;;;;;;1.93;1.77;;;13.20;99.90;;;;;;5022981;28;20194;-86
2021/10/07 15:15:56;;;;;;;1.27;1.17;;;13.20;99.90;;;;;;5024008;28;20262;-85
2021/10/07 15:18:24;;;;;;;2.20;1.30;;;13.10;99.90;;;;;;5041999;28;20522;-86
2021/10/07 15:20:51;;;;;;;1.57;1.10;;;13.20;99.90;;;;;;5040893;28;20208;-86
2021/10/07 15:23:17;;;;;;;1.10;0.77;;;13.20;99.90;;;;;;5043135;28;20186;-84
2021/10/07 15:25:44;;;;;;;1.30;1.03;;;13.20;99.90;;;;;;5046780;28;20182;-86
2021/10/07 15:28:09;;;;;;;1.40;1.00;;;13.30;99.90;;;;;;5045160;28;20175;-85
2021/10/07 15:30:36;;;;;;;1.53;1.20;;;13.30;99.90;;;;;;5029627;28;20183;-86
2021/10/07 15:33:02;;;;;;;2.10;1.13;;;13.30;99.90;;;;;;5032754;28;20190;-85
2021/10/07 15:35:28;;;;;;;1.30;1.20;;;13.30;99.90;;;;;;5039663;28;20177;-83
2021/10/07 15:37:53;;;;;;;3.33;1.17;;;13.30;99.90;;;;;;5034564;28;20179;-85
2021/10/07 15:40:19;;;;;;;1.13;1.03;;;13.30;99.90;;;;;;5035654;28;20269;-84
2021/10/07 15:42:45;;;;;;;2.70;1.10;;;13.30;99.90;;;;;;5030704;28;20572;-86
2021/10/07 15:45:11;;;;;;;1.97;1.10;;;13.30;99.90;;;;;;5040908;28;20189;-86
2021/10/07 15:47:37;;;;;;;3.47;1.07;;;13.30;99.90;;;;;;5034990;28;20205;-85
2021/10/07 15:50:04;;;;;;;1.90;1.10;;;13.30;99.90;;;;;;5023026;28;20211;-84
2021/10/07 15:52:30;;;;;;;1.00;0.90;;;13.30;99.90;;;;;;5038705;28;20198;-83
2021/10/07 15:54:56;;;;;;;2.30;1.10;;;13.30;99.90;;;;;;5042236;28;20182;-85
2021/10/07 15:57:23;;;;;;;1.20;0.80;;;13.30;99.90;;;;;;5024393;28;20187;-83
2021/10/07 15:59:50;;;;;;;0.83;0.83;;;13.20;99.90;;;;;;5017216;28;20203;-84
2021/10/07 16:02:21;;;;;;;1.40;1.00;;;13.20;99.90;;;;;;5033211;28;20336;-82
2021/10/07 16:04:47;;;;;;;2.70;1.20;;;13.20;99.90;;;;;;5028848;28;20179;-82
2021/10/07 16:07:12;;;;;;;1.13;1.03;;;13.20;99.90;;;;;;5037287;28;20217;-84
2021/10/07 16:09:38;;;;;;;1.60;1.50;;;13.10;99.90;;;;;;5037315;28;20209;-83
2021/10/07 16:12:04;;;;;;;1.43;1.33;;;13.10;99.90;;;;;;5040237;28;20255;-84
2021/10/07 16:14:29;;;;;;;2.57;1.40;;;13.10;99.90;;;;;;5041472;28;20190;-84
2021/10/07 16:16:55;;;;;;;1.67;1.37;;;13.10;99.90;;;;;;5041211;28;20537;-84
2021/10/07 16:19:21;;;;;;;1.33;1.10;;;13.10;99.90;;;;;;5042667;28;20208;-84
2021/10/07 16:21:47;;;;;;;3.40;2.50;;;13.00;99.90;;;;;;5042094;28;20265;-84
2021/10/07 16:24:13;;;;;;;2.10;1.80;;;13.00;99.90;;;;;;5041317;28;20252;-84
2021/10/07 16:26:40;;;;;;;1.80;1.70;;;13.00;99.90;;;;;;5041551;28;20206;-84
2021/10/07 16:29:05;;;;;;;1.60;1.40;;;12.90;99.90;;;;;;5041474;28;20205;-84
2021/10/07 16:31:32;;;;;;;1.87;1.63;;;12.90;99.90;;;;;;5040368;28;20191;-84
2021/10/07 16:33:58;;;;;;;16.37;2.37;;;12.90;99.90;;;;;;5040463;28;20177;-84
2021/10/07 16:36:23;;;;;;;3.47;3.27;;;12.80;99.90;;;;;;5041824;28;20239;-84
2021/10/07 16:38:49;;;;;;;2.67;2.47;;;12.80;99.90;;;;;;5035118;28;20180;-84
2021/10/07 16:41:15;;;;;;;2.63;2.30;;;12.70;99.90;;;;;;5041134;28;20221;-83
2021/10/07 16:43:41;;;;;;;9.87;9.13;;;12.80;99.90;;;;;;5041730;28;20178;-84
2021/10/07 16:46:07;;;;;;;3.83;3.40;;;12.70;99.90;;;;;;5041223;28;20186;-84